Inicio METAR Ruta Wind Satelite

Informe Meteorológico

Fecha: 2021/09/21 15:14:17 Local
2021.09.21 20:14 UTC


Operación:MVFR
SKBO 212000Z 27009KT 9999 -DZ BKN020 16/12 Q1025 RMK A3027 =

SKBO 211900Z 10008KT 9999 VCSH BKN020TCU 20/09 Q1025 TEMPO DZ RMK TCU/NW VCSH/NW/NE A3027
SKBO 211800Z 13008KT 9999 VCSH BKN020TCU 20/09 Q1026 TEMPO DZ
SKBO 211700Z 17006KT 9999 VCSH BKN020 21/09 Q1027 NOSIG RMK VCSH/NE/NW A3033
SKBO 211600Z 16005KT 9999 VCSH BKN020TCU 19/10 Q1028 NOSIG RMK TCU/E VCSH/SE A3037
SKBO 211500Z 09006KT 9999 VCSH BKN018 17/10 Q1028 NOSIG RMK VCSH/S A3038

2021/09/21 18:53
TAF SKBO 211630Z 2118/2218 14009KT 9999 SCT015 BKN080
TEMPO 2119/2123 DZ SCT015TCU BKN070
BECMG 2201/2203 VRB02KT
TEMPO 2209/2212 DZ BKN015
BECMG 2214/2216 14012KT TX20/2118Z TN09/2210Z